Time;durP1;ratioP1;P1;durP2;ratioP2;P2;SDS_P1;SDS_P2;PMS_P1;PMS_P2;Temp;Humidity;BMP_temperature;BMP_pressure;BME280_temperature;BME280_humidity;BME280_pressure;Samples;Min_cycle;Max_cycle;Signal;HPM_P1;HPM_P2
2023/11/04 00:01:30;;;;;;;1.60;1.20;;;8.70;98.20;;;;;;4977014;28;20560;-85
2023/11/04 00:03:56;;;;;;;1.60;1.30;;;8.70;98.20;;;;;;4991456;28;20470;-86
2023/11/04 00:06:23;;;;;;;1.57;1.27;;;8.70;98.20;;;;;;4973996;28;20556;-87
2023/11/04 00:08:52;;;;;;;1.53;1.20;;;8.60;98.20;;;;;;4996556;28;20461;-84
2023/11/04 00:11:19;;;;;;;1.60;1.30;;;8.60;98.20;;;;;;4976876;28;20542;-85
2023/11/04 00:13:46;;;;;;;1.50;1.20;;;8.60;98.20;;;;;;4990787;28;20479;-85
2023/11/04 00:16:13;;;;;;;1.53;1.20;;;8.70;98.20;;;;;;4975591;28;20567;-84
2023/11/04 00:18:39;;;;;;;1.53;1.30;;;8.70;98.20;;;;;;4992505;28;20485;-84
2023/11/04 00:21:08;;;;;;;1.60;1.40;;;8.70;98.20;;;;;;4974570;28;20457;-85
2023/11/04 00:23:34;;;;;;;1.60;1.30;;;8.70;98.20;;;;;;4993589;28;20544;-86
2023/11/04 00:26:03;;;;;;;1.53;1.20;;;8.70;98.20;;;;;;4976572;28;20491;-85
2023/11/04 00:28:31;;;;;;;1.60;1.30;;;8.70;98.20;;;;;;4998350;28;20464;-88
2023/11/04 00:30:57;;;;;;;1.60;1.30;;;8.70;98.20;;;;;;4974411;28;20532;-85
2023/11/04 00:33:24;;;;;;;1.50;1.20;;;8.70;98.20;;;;;;4980660;28;21031;-85
2023/11/04 00:35:51;;;;;;;1.60;1.30;;;8.70;98.20;;;;;;4958030;28;20486;-84
2023/11/04 00:38:19;;;;;;;1.57;1.20;;;8.70;98.20;;;;;;4979712;28;20945;-86
2023/11/04 00:40:46;;;;;;;1.60;1.30;;;8.70;98.20;;;;;;4966052;28;20470;-86
2023/11/04 00:43:14;;;;;;;1.60;1.20;;;8.80;98.20;;;;;;4982563;28;21125;-84
2023/11/04 00:45:41;;;;;;;1.53;1.20;;;8.80;98.20;;;;;;4984482;28;20545;-84
2023/11/04 00:48:08;;;;;;;1.57;1.10;;;8.90;98.20;;;;;;4990523;28;20588;-82
2023/11/04 00:50:36;;;;;;;1.60;1.30;;;8.90;98.20;;;;;;4983068;28;20879;-84
2023/11/04 00:53:04;;;;;;;1.60;1.33;;;8.90;98.20;;;;;;4991164;28;20484;-84
2023/11/04 00:55:31;;;;;;;1.60;1.20;;;9.00;98.20;;;;;;4980848;28;20477;-84
2023/11/04 00:57:58;;;;;;;1.50;1.10;;;9.00;98.20;;;;;;4990637;28;20481;-86
2023/11/04 01:00:27;;;;;;;1.60;1.20;;;9.00;98.20;;;;;;4982682;28;20465;-88
2023/11/04 01:02:54;;;;;;;1.57;1.20;;;9.10;98.20;;;;;;4961485;28;20945;-86
2023/11/04 01:05:22;;;;;;;1.60;1.30;;;9.10;98.20;;;;;;4975214;28;20500;-86
2023/11/04 01:07:49;;;;;;;1.50;1.20;;;9.10;98.20;;;;;;4980155;28;20485;-87
2023/11/04 01:10:15;;;;;;;1.60;1.30;;;9.10;98.20;;;;;;4975628;28;20545;-83
2023/11/04 01:12:42;;;;;;;1.60;1.20;;;9.10;98.20;;;;;;4962831;28;20493;-88
2023/11/04 01:15:10;;;;;;;1.50;1.20;;;9.10;98.20;;;;;;4973984;28;20477;-87
2023/11/04 01:17:38;;;;;;;1.53;1.17;;;9.10;98.20;;;;;;4978947;28;20576;-87
2023/11/04 01:20:07;;;;;;;1.60;1.20;;;9.10;98.20;;;;;;4973884;28;20458;-87
2023/11/04 01:22:34;;;;;;;1.57;1.20;;;9.10;98.20;;;;;;4962064;28;21042;-87
2023/11/04 01:25:02;;;;;;;1.60;1.20;;;9.10;98.20;;;;;;4974114;28;20545;-87
2023/11/04 01:27:29;;;;;;;1.53;1.20;;;9.10;98.20;;;;;;4977543;28;20488;-88
2023/11/04 01:29:56;;;;;;;1.60;1.30;;;9.10;98.20;;;;;;4975815;28;20481;-89
2023/11/04 01:32:22;;;;;;;1.57;1.20;;;9.10;98.20;;;;;;4960884;28;20485;-87
2023/11/04 01:34:51;;;;;;;1.53;1.10;;;9.10;98.20;;;;;;4974310;28;20466;-87
2023/11/04 01:37:19;;;;;;;1.60;1.30;;;9.00;98.20;;;;;;4967895;28;20509;-87
2023/11/04 01:39:45;;;;;;;1.60;1.30;;;9.00;98.20;;;;;;4974480;28;20592;-89
2023/11/04 01:42:12;;;;;;;1.53;1.20;;;8.90;98.20;;;;;;4966248;28;21742;-87
2023/11/04 01:44:39;;;;;;;1.60;1.30;;;8.90;98.20;;;;;;4976621;28;20842;-89
2023/11/04 01:47:06;;;;;;;1.57;1.20;;;8.90;98.20;;;;;;4960580;28;20837;-89
2023/11/04 01:49:33;;;;;;;1.57;1.23;;;8.80;98.20;;;;;;4974345;28;20468;-86
2023/11/04 01:52:02;;;;;;;1.53;1.20;;;8.80;98.20;;;;;;4965716;28;20474;-87
2023/11/04 01:54:29;;;;;;;1.60;1.30;;;8.70;98.20;;;;;;4974386;28;20979;-88
2023/11/04 01:56:56;;;;;;;1.53;1.20;;;8.70;98.20;;;;;;4972518;28;20497;-87
2023/11/04 01:59:24;;;;;;;1.60;1.20;;;8.70;98.20;;;;;;4980862;28;20458;-86
2023/11/04 02:01:51;;;;;;;1.60;1.20;;;8.60;98.20;;;;;;4970980;28;20573;-88
2023/11/04 02:04:18;;;;;;;1.50;1.20;;;8.60;98.20;;;;;;4981205;28;20498;-87
2023/11/04 02:06:45;;;;;;;1.50;1.20;;;8.70;98.20;;;;;;4962853;28;20497;-87
2023/11/04 02:09:14;;;;;;;1.60;1.20;;;8.70;98.20;;;;;;4973653;28;20472;-88
2023/11/04 02:11:41;;;;;;;1.53;1.20;;;8.70;98.20;;;;;;4969371;28;21082;-88
2023/11/04 02:14:08;;;;;;;1.53;1.20;;;8.60;98.20;;;;;;4980125;28;20472;-88
2023/11/04 02:16:35;;;;;;;1.53;1.20;;;8.70;98.20;;;;;;4966311;28;20551;-87
2023/11/04 02:19:02;;;;;;;1.60;1.20;;;8.70;98.20;;;;;;4993331;28;20461;-87
2023/11/04 02:21:30;;;;;;;1.57;1.20;;;8.70;98.20;;;;;;4988364;28;20464;-87
2023/11/04 02:23:57;;;;;;;1.60;1.20;;;8.70;98.20;;;;;;5002500;28;20457;-87
2023/11/04 02:26:24;;;;;;;1.57;1.20;;;8.70;98.20;;;;;;4982597;28;20857;-88
2023/11/04 02:28:51;;;;;;;1.57;1.20;;;8.70;98.20;;;;;;5004623;28;20465;-90
2023/11/04 02:31:18;;;;;;;1.60;1.30;;;8.70;98.20;;;;;;4984117;28;20476;-88
2023/11/04 02:33:45;;;;;;;1.53;1.20;;;8.70;98.20;;;;;;5003905;28;20508;-87
2023/11/04 02:36:11;;;;;;;1.57;1.20;;;8.70;98.20;;;;;;4988200;28;20484;-86
2023/11/04 02:38:40;;;;;;;1.53;1.20;;;8.70;98.20;;;;;;5006166;28;20465;-88
2023/11/04 02:41:06;;;;;;;1.53;1.20;;;8.70;98.20;;;;;;4984547;28;20508;-87
2023/11/04 02:43:33;;;;;;;1.53;1.20;;;8.70;98.20;;;;;;5006039;28;20483;-86
2023/11/04 02:46:00;;;;;;;1.60;1.20;;;8.70;98.20;;;;;;4983616;28;20489;-88
2023/11/04 02:48:27;;;;;;;1.57;1.20;;;8.80;98.20;;;;;;5006609;28;20560;-87
2023/11/04 02:50:54;;;;;;;1.60;1.20;;;8.80;98.20;;;;;;4982157;28;21102;-87
2023/11/04 02:53:21;;;;;;;1.60;1.30;;;8.80;98.20;;;;;;5006659;28;21041;-87
2023/11/04 02:55:49;;;;;;;1.60;1.20;;;8.90;98.20;;;;;;4986079;28;20469;-86
2023/11/04 02:58:16;;;;;;;1.60;1.30;;;8.90;98.20;;;;;;5007220;28;20478;-87
2023/11/04 03:00:42;;;;;;;1.60;1.30;;;8.90;98.20;;;;;;4993191;28;20468;-87
2023/11/04 03:03:09;;;;;;;1.60;1.20;;;9.00;98.20;;;;;;4997396;28;20477;-88
2023/11/04 03:05:36;;;;;;;1.60;1.47;;;9.00;98.20;;;;;;4992396;28;20457;-88
2023/11/04 03:08:03;;;;;;;1.57;1.20;;;9.00;98.20;;;;;;4996291;28;20491;-89
2023/11/04 03:10:30;;;;;;;1.53;1.20;;;9.00;98.20;;;;;;4992124;28;20492;-87
2023/11/04 03:12:59;;;;;;;1.60;1.30;;;9.00;98.20;;;;;;4996298;28;20480;-87
2023/11/04 03:15:26;;;;;;;1.60;1.30;;;9.10;98.20;;;;;;4992264;28;20999;-87
2023/11/04 03:17:53;;;;;;;1.57;1.20;;;9.10;98.20;;;;;;4995719;28;20488;-88
2023/11/04 03:20:20;;;;;;;1.53;1.23;;;9.10;98.20;;;;;;4991697;28;20470;-88
2023/11/04 03:22:47;;;;;;;1.60;1.20;;;9.10;98.20;;;;;;4998030;28;20488;-88
2023/11/04 03:25:15;;;;;;;1.60;1.20;;;9.20;98.20;;;;;;4993165;28;20464;-86
2023/11/04 03:27:42;;;;;;;1.53;1.20;;;9.20;98.20;;;;;;5000182;28;20519;-87
2023/11/04 03:30:11;;;;;;;1.60;1.20;;;9.30;98.20;;;;;;4993722;28;20465;-89
2023/11/04 03:32:38;;;;;;;1.57;1.20;;;9.30;98.20;;;;;;4995708;28;20881;-87
2023/11/04 03:35:05;;;;;;;1.60;1.20;;;9.30;98.20;;;;;;4993194;28;20500;-85
2023/11/04 03:37:34;;;;;;;1.60;1.30;;;9.30;98.20;;;;;;4987463;28;20491;-85
2023/11/04 03:40:00;;;;;;;1.57;1.20;;;9.30;98.20;;;;;;4992884;28;20528;-86
2023/11/04 03:42:27;;;;;;;1.53;1.10;;;9.40;98.20;;;;;;4994059;28;20472;-89
2023/11/04 03:44:54;;;;;;;1.60;1.20;;;9.30;98.20;;;;;;4996080;28;20473;-85
2023/11/04 03:47:23;;;;;;;1.60;1.20;;;9.40;98.20;;;;;;4991315;28;20483;-90
2023/11/04 03:49:49;;;;;;;1.60;1.30;;;9.30;98.20;;;;;;4996430;28;20544;-88
2023/11/04 03:52:16;;;;;;;1.60;1.30;;;9.30;98.20;;;;;;4993160;28;20532;-86
2023/11/04 03:54:43;;;;;;;1.50;1.10;;;9.30;98.20;;;;;;4994924;28;20493;-86
2023/11/04 03:57:10;;;;;;;1.60;1.20;;;9.40;98.20;;;;;;4991504;28;20498;-88
2023/11/04 03:59:36;;;;;;;1.60;1.30;;;9.30;98.20;;;;;;4996892;28;20461;-85
2023/11/04 04:02:03;;;;;;;1.57;1.20;;;9.40;98.20;;;;;;4992360;28;20474;-88
2023/11/04 04:04:31;;;;;;;1.60;1.30;;;9.30;98.20;;;;;;5001761;28;20565;-85
2023/11/04 04:06:58;;;;;;;1.53;1.20;;;9.30;98.20;;;;;;4994209;28;20560;-87
2023/11/04 04:09:25;;;;;;;1.57;1.20;;;9.30;98.20;;;;;;4998283;28;20460;-88
2023/11/04 04:11:52;;;;;;;2.90;2.70;;;9.30;98.20;;;;;;4991689;28;20495;-86
2023/11/04 04:14:18;;;;;;;1.57;1.20;;;9.30;98.20;;;;;;5000520;28;20471;-85
2023/11/04 04:16:46;;;;;;;1.60;1.20;;;9.30;98.20;;;;;;4990307;28;20484;-83
2023/11/04 04:19:13;;;;;;;1.60;1.30;;;9.30;98.20;;;;;;4998784;28;20475;-83
2023/11/04 04:21:41;;;;;;;1.53;1.10;;;9.30;98.20;;;;;;4989190;28;20487;-82
2023/11/04 04:24:09;;;;;;;1.60;1.20;;;9.30;98.20;;;;;;5005492;28;20815;-82
2023/11/04 04:26:35;;;;;;;1.60;1.20;;;9.30;98.20;;;;;;4977894;28;20496;-83
2023/11/04 04:29:03;;;;;;;1.60;1.20;;;9.30;98.20;;;;;;4979480;28;21080;-85
2023/11/04 04:31:29;;;;;;;1.60;1.20;;;9.20;98.20;;;;;;4975240;28;21074;-84
2023/11/04 04:33:56;;;;;;;1.50;1.10;;;9.20;98.20;;;;;;5004612;28;21011;-85
2023/11/04 04:36:30;;;;;;;1.50;1.10;;;9.20;98.20;;;;;;4989497;28;20483;-84
2023/11/04 04:38:59;;;;;;;1.60;1.20;;;9.20;98.20;;;;;;5002513;28;20500;-83
2023/11/04 04:41:27;;;;;;;1.50;1.10;;;9.20;98.20;;;;;;4974981;28;20483;-83
2023/11/04 04:43:54;;;;;;;1.60;1.20;;;9.20;98.20;;;;;;4989715;28;20836;-84
2023/11/04 04:46:21;;;;;;;1.60;1.30;;;9.30;98.20;;;;;;4977627;28;20489;-84
2023/11/04 04:48:48;;;;;;;1.50;1.10;;;9.30;98.20;;;;;;4998971;28;20465;-83
2023/11/04 04:51:18;;;;;;;1.60;1.20;;;9.30;98.20;;;;;;4973045;28;20550;-82
2023/11/04 04:53:44;;;;;;;1.60;1.20;;;9.40;98.20;;;;;;5000592;28;20482;-84
2023/11/04 04:56:15;;;;;;;1.53;1.20;;;9.40;98.20;;;;;;4975914;28;20488;-83
2023/11/04 04:58:41;;;;;;;1.60;1.30;;;9.40;98.20;;;;;;4994959;28;20474;-84
2023/11/04 05:01:08;;;;;;;1.53;1.13;;;9.40;98.20;;;;;;4969692;28;20476;-84
2023/11/04 05:03:35;;;;;;;1.53;1.20;;;9.40;98.20;;;;;;4998447;28;20976;-87
2023/11/04 05:06:02;;;;;;;1.60;1.40;;;9.40;98.20;;;;;;4975029;28;21055;-87
2023/11/04 05:08:29;;;;;;;1.57;1.20;;;9.40;98.20;;;;;;5003409;28;20511;-86
2023/11/04 05:10:58;;;;;;;1.53;1.20;;;9.40;98.20;;;;;;4975133;28;20544;-87
2023/11/04 05:13:28;;;;;;;1.60;1.23;;;9.40;98.20;;;;;;4996953;28;20514;-83
2023/11/04 05:15:55;;;;;;;1.60;1.20;;;9.40;98.20;;;;;;4974228;28;20515;-89
2023/11/04 05:18:22;;;;;;;1.57;1.20;;;9.40;98.20;;;;;;4996417;28;20468;-87
2023/11/04 05:20:48;;;;;;;1.60;1.20;;;9.30;98.20;;;;;;4977100;28;20461;-84
2023/11/04 05:23:16;;;;;;;1.53;1.17;;;9.30;98.20;;;;;;5004716;28;20459;-86
2023/11/04 05:25:44;;;;;;;1.53;1.17;;;9.30;98.20;;;;;;4991514;28;20469;-87
2023/11/04 05:28:11;;;;;;;1.60;1.23;;;9.30;98.20;;;;;;4985412;28;20470;-88
2023/11/04 05:30:39;;;;;;;1.57;1.20;;;9.20;98.20;;;;;;4987562;28;20466;-87
2023/11/04 05:33:06;;;;;;;1.60;1.30;;;9.20;98.20;;;;;;4988831;28;21006;-88
2023/11/04 05:35:33;;;;;;;1.53;1.20;;;9.10;98.20;;;;;;4981020;28;20473;-89
2023/11/04 05:38:00;;;;;;;1.50;1.10;;;9.10;98.20;;;;;;4989902;28;20481;-86
2023/11/04 05:40:28;;;;;;;1.53;1.20;;;9.10;98.20;;;;;;4987155;28;20545;-88
2023/11/04 05:42:55;;;;;;;1.57;1.20;;;9.20;98.20;;;;;;4985880;28;20497;-86
2023/11/04 05:45:24;;;;;;;1.50;1.20;;;9.20;98.20;;;;;;4975334;28;20474;-86
2023/11/04 05:47:53;;;;;;;1.60;1.37;;;9.20;98.20;;;;;;4984045;28;20488;-88
2023/11/04 05:50:19;;;;;;;1.50;1.20;;;9.30;98.20;;;;;;4984276;28;20467;-87
2023/11/04 05:52:48;;;;;;;1.50;1.10;;;9.30;98.20;;;;;;4991342;28;20600;-85
2023/11/04 05:55:14;;;;;;;1.60;1.30;;;9.30;98.20;;;;;;4988691;28;20479;-84
2023/11/04 05:57:41;;;;;;;1.60;1.30;;;9.30;98.20;;;;;;4989171;28;20548;-86
2023/11/04 06:00:11;;;;;;;1.50;1.13;;;9.40;98.20;;;;;;4984148;28;20468;-87
2023/11/04 06:02:38;;;;;;;1.60;1.30;;;9.40;98.20;;;;;;4990710;28;20481;-85
2023/11/04 06:05:08;;;;;;;1.53;1.20;;;9.40;98.20;;;;;;4977035;28;20474;-82
2023/11/04 06:07:35;;;;;;;1.83;1.63;;;9.50;98.20;;;;;;4969610;28;20469;-83
2023/11/04 06:10:03;;;;;;;1.57;1.20;;;9.50;98.20;;;;;;4965386;28;20462;-80
2023/11/04 06:12:33;;;;;;;1.57;1.10;;;9.50;98.20;;;;;;4954504;28;20482;-81
2023/11/04 06:15:00;;;;;;;1.50;1.10;;;9.50;98.20;;;;;;4966486;28;20489;-83
2023/11/04 06:17:27;;;;;;;1.53;1.20;;;9.50;98.20;;;;;;5457607;23;20883;-85
2023/11/04 06:19:54;;;;;;;1.60;1.20;;;9.60;98.20;;;;;;4983707;28;20469;-85
2023/11/04 06:22:23;;;;;;;1.57;1.20;;;9.60;98.20;;;;;;4985045;28;20542;-86
2023/11/04 06:24:52;;;;;;;1.60;1.20;;;9.70;98.20;;;;;;4988617;28;20467;-85
2023/11/04 06:27:19;;;;;;;1.60;1.30;;;9.70;98.20;;;;;;4981123;28;20493;-86
2023/11/04 06:29:46;;;;;;;1.53;1.20;;;9.70;98.20;;;;;;4974190;28;20477;-83
2023/11/04 06:32:13;;;;;;;1.57;1.10;;;9.70;98.20;;;;;;4966870;28;20476;-84
2023/11/04 06:34:41;;;;;;;1.53;1.20;;;9.70;98.20;;;;;;4971859;28;20574;-85
2023/11/04 06:37:08;;;;;;;1.57;1.10;;;9.70;98.20;;;;;;4969050;28;21105;-82
2023/11/04 06:39:36;;;;;;;1.60;1.20;;;9.70;98.20;;;;;;4971089;28;20839;-83
2023/11/04 06:42:03;;;;;;;1.60;1.20;;;9.70;98.20;;;;;;4969091;28;20481;-85
2023/11/04 06:44:29;;;;;;;1.50;1.20;;;9.70;98.20;;;;;;4972587;28;20473;-84
2023/11/04 06:46:56;;;;;;;1.57;1.20;;;9.60;98.20;;;;;;4961734;28;20493;-83
2023/11/04 06:49:23;;;;;;;1.57;1.20;;;9.60;98.20;;;;;;4971099;28;20896;-82
2023/11/04 06:51:50;;;;;;;1.57;1.20;;;9.60;98.20;;;;;;4964189;28;20508;-84
2023/11/04 06:54:17;;;;;;;1.60;1.27;;;9.60;98.20;;;;;;4971039;28;20489;-83
2023/11/04 06:56:45;;;;;;;1.57;1.20;;;9.60;98.20;;;;;;4960435;28;21049;-83
2023/11/04 06:59:16;;;;;;;1.53;1.10;;;9.70;98.20;;;;;;4972110;28;20768;-83
2023/11/04 07:01:47;;;;;;;1.50;1.10;;;9.70;98.20;;;;;;4959584;28;20512;-85
2023/11/04 07:04:14;;;;;;;1.53;1.20;;;9.70;98.20;;;;;;4974281;28;20462;-84
2023/11/04 07:06:42;;;;;;;1.53;1.10;;;9.70;98.20;;;;;;4965573;28;20482;-85
2023/11/04 07:09:10;;;;;;;1.50;1.20;;;9.80;98.20;;;;;;4952156;28;21008;-85
2023/11/04 07:11:40;;;;;;;1.50;1.10;;;9.80;98.20;;;;;;4936958;28;20520;-83
2023/11/04 07:14:09;;;;;;;1.57;1.10;;;9.80;98.20;;;;;;4948249;28;20574;-83
2023/11/04 07:16:36;;;;;;;1.57;1.20;;;9.80;98.20;;;;;;4940469;28;20570;-86
2023/11/04 07:19:03;;;;;;;1.60;1.40;;;9.80;98.20;;;;;;4973470;28;20481;-85
2023/11/04 07:21:30;;;;;;;2.03;1.87;;;9.80;98.20;;;;;;4956476;28;20641;-83
2023/11/04 07:23:57;;;;;;;1.57;1.20;;;9.80;98.20;;;;;;4970753;28;20480;-84
2023/11/04 07:26:23;;;;;;;1.57;1.20;;;9.90;98.20;;;;;;4957749;28;20873;-84
2023/11/04 07:28:51;;;;;;;1.53;1.10;;;9.80;98.20;;;;;;4975821;28;21042;-85
2023/11/04 07:31:19;;;;;;;1.60;1.20;;;9.80;98.20;;;;;;4959803;28;20473;-83
2023/11/04 07:33:46;;;;;;;1.53;1.10;;;9.90;98.20;;;;;;4978667;28;20486;-81
2023/11/04 07:36:13;;;;;;;1.60;1.20;;;9.90;98.20;;;;;;4956850;28;20907;-84
2023/11/04 07:38:40;;;;;;;1.57;1.20;;;9.90;98.20;;;;;;4976936;28;20561;-84
2023/11/04 07:41:07;;;;;;;1.53;1.10;;;9.90;98.20;;;;;;4959447;28;20524;-83
2023/11/04 07:43:34;;;;;;;1.60;1.20;;;10.00;98.20;;;;;;4982721;28;20466;-85
2023/11/04 07:46:01;;;;;;;1.57;1.20;;;10.00;98.20;;;;;;4963515;28;20504;-83
2023/11/04 07:48:29;;;;;;;1.60;1.17;;;10.00;98.20;;;;;;4976923;28;20499;-83
2023/11/04 07:50:56;;;;;;;1.60;1.20;;;10.00;98.20;;;;;;4957271;28;20952;-82
2023/11/04 07:53:23;;;;;;;1.60;1.20;;;10.00;98.20;;;;;;4980444;28;20573;-83
2023/11/04 07:55:50;;;;;;;1.50;1.10;;;10.10;98.20;;;;;;4960307;28;21158;-85
2023/11/04 07:58:18;;;;;;;1.60;1.20;;;10.10;98.20;;;;;;4982146;28;20481;-86
2023/11/04 08:00:45;;;;;;;1.53;1.20;;;10.10;98.20;;;;;;4969249;28;20455;-83
2023/11/04 08:03:12;;;;;;;1.57;1.20;;;10.10;98.20;;;;;;4938617;29;20483;-84
2023/11/04 08:05:41;;;;;;;1.53;1.20;;;10.10;98.20;;;;;;4951196;29;20554;-88
2023/11/04 08:08:09;;;;;;;1.53;1.10;;;10.00;98.20;;;;;;4978392;28;20489;-86
2023/11/04 08:10:37;;;;;;;1.53;1.10;;;10.00;98.20;;;;;;4972447;28;20463;-87
2023/11/04 08:13:04;;;;;;;1.53;1.10;;;10.00;98.20;;;;;;4974606;28;20485;-85
2023/11/04 08:15:31;;;;;;;1.70;1.50;;;10.00;98.20;;;;;;4969483;28;20481;-86
2023/11/04 08:17:59;;;;;;;1.60;1.17;;;10.00;98.20;;;;;;4970912;28;20493;-83
2023/11/04 08:20:26;;;;;;;1.60;1.20;;;10.10;98.20;;;;;;4968487;28;20520;-80
2023/11/04 08:22:54;;;;;;;1.50;1.10;;;10.10;98.20;;;;;;4974268;28;20500;-83
2023/11/04 08:25:21;;;;;;;1.53;1.10;;;10.10;98.20;;;;;;4970929;28;20465;-86
2023/11/04 08:27:48;;;;;;;1.57;1.20;;;10.10;98.20;;;;;;4973758;28;20572;-85
2023/11/04 08:30:17;;;;;;;1.53;1.10;;;10.10;98.20;;;;;;4970108;28;20448;-86
2023/11/04 08:32:44;;;;;;;1.60;1.40;;;10.10;98.20;;;;;;4974076;28;20485;-82
2023/11/04 08:35:11;;;;;;;1.53;1.10;;;10.20;98.20;;;;;;4965530;28;20496;-83
2023/11/04 08:37:38;;;;;;;1.70;1.50;;;10.20;98.20;;;;;;4967969;28;20588;-84
2023/11/04 08:40:08;;;;;;;1.60;1.10;;;10.20;98.20;;;;;;4971516;28;20461;-84
2023/11/04 08:42:36;;;;;;;1.50;1.10;;;10.20;98.20;;;;;;4972353;28;20492;-85
2023/11/04 08:45:03;;;;;;;1.60;1.20;;;10.30;98.20;;;;;;4972187;28;20489;-83
2023/11/04 08:47:30;;;;;;;1.53;1.10;;;10.30;98.20;;;;;;4970772;28;20868;-84
2023/11/04 08:49:57;;;;;;;1.53;1.10;;;10.40;98.20;;;;;;4971622;28;20957;-85
2023/11/04 08:52:24;;;;;;;1.57;1.10;;;10.50;98.20;;;;;;4969245;28;21078;-85
2023/11/04 08:54:50;;;;;;;1.53;1.10;;;10.50;98.20;;;;;;4967931;28;21044;-84
2023/11/04 08:57:19;;;;;;;1.60;1.20;;;10.60;98.20;;;;;;4970655;28;20485;-84
2023/11/04 08:59:46;;;;;;;1.53;1.07;;;10.70;98.20;;;;;;4969068;28;21053;-83
2023/11/04 09:02:13;;;;;;;1.57;1.10;;;10.80;98.20;;;;;;4968714;28;20730;-85
2023/11/04 09:04:40;;;;;;;1.57;1.10;;;11.00;98.20;;;;;;4973854;28;20470;-85
2023/11/04 09:07:07;;;;;;;1.53;1.00;;;11.10;98.20;;;;;;4967912;28;20485;-84
2023/11/04 09:09:34;;;;;;;1.60;1.10;;;11.10;98.20;;;;;;4975735;28;20745;-81
2023/11/04 09:12:01;;;;;;;1.57;1.10;;;11.10;98.20;;;;;;4968501;28;20512;-84
2023/11/04 09:14:29;;;;;;;1.60;1.17;;;11.10;98.20;;;;;;4970061;28;20550;-83
2023/11/04 09:16:56;;;;;;;1.57;1.10;;;11.00;98.20;;;;;;4960626;28;21114;-83
2023/11/04 09:19:24;;;;;;;1.50;1.10;;;11.00;98.20;;;;;;4972631;28;20996;-85
2023/11/04 09:21:51;;;;;;;1.50;1.10;;;10.90;98.20;;;;;;4962448;28;20505;-82
2023/11/04 09:24:19;;;;;;;1.60;1.10;;;10.90;98.20;;;;;;4972977;28;20612;-82
2023/11/04 09:26:46;;;;;;;1.50;1.10;;;10.90;98.20;;;;;;4962840;28;20477;-83
2023/11/04 09:29:13;;;;;;;1.53;1.10;;;11.00;98.20;;;;;;4975067;28;20477;-83
2023/11/04 09:31:41;;;;;;;1.60;1.10;;;11.00;98.20;;;;;;4962782;28;20544;-81
2023/11/04 09:34:08;;;;;;;1.60;1.10;;;11.10;98.20;;;;;;4977417;28;20548;-83
2023/11/04 09:36:35;;;;;;;1.53;1.10;;;11.10;98.20;;;;;;4965721;28;20480;-82
2023/11/04 09:39:04;;;;;;;1.53;1.10;;;11.10;98.20;;;;;;4973374;28;20677;-81
2023/11/04 09:41:31;;;;;;;1.53;1.10;;;11.10;98.20;;;;;;4961362;28;20764;-82
2023/11/04 09:43:59;;;;;;;1.60;1.40;;;11.20;98.20;;;;;;4977579;28;20466;-82
2023/11/04 09:46:27;;;;;;;1.53;1.10;;;11.40;98.20;;;;;;4960476;28;20477;-81
2023/11/04 09:48:55;;;;;;;1.57;1.10;;;11.50;98.20;;;;;;4976741;28;20524;-84
2023/11/04 09:51:25;;;;;;;1.53;1.03;;;11.60;98.20;;;;;;4960807;28;20469;-82
2023/11/04 09:53:54;;;;;;;1.60;1.10;;;11.80;98.20;;;;;;4974438;28;20533;-81
2023/11/04 09:56:22;;;;;;;1.57;1.10;;;11.90;98.20;;;;;;4960761;28;20481;-82
2023/11/04 09:58:50;;;;;;;1.53;1.00;;;12.00;98.20;;;;;;4977189;28;20478;-82
2023/11/04 10:01:18;;;;;;;1.60;1.20;;;12.10;98.20;;;;;;4962259;28;20560;-82
2023/11/04 10:03:46;;;;;;;1.57;1.07;;;12.30;98.20;;;;;;4981262;28;20459;-81
2023/11/04 10:06:15;;;;;;;1.57;1.10;;;12.40;98.20;;;;;;4960311;28;20484;-81
2023/11/04 10:08:42;;;;;;;1.60;1.10;;;12.50;98.20;;;;;;4974037;28;20557;-81
2023/11/04 10:11:09;;;;;;;1.57;1.00;;;12.50;98.20;;;;;;4958826;28;20473;-83
2023/11/04 10:13:37;;;;;;;1.60;1.20;;;12.50;98.20;;;;;;4976547;28;20528;-82
2023/11/04 10:16:04;;;;;;;1.53;1.00;;;12.40;98.20;;;;;;4956879;28;20513;-82
2023/11/04 10:18:32;;;;;;;1.53;1.00;;;12.30;98.20;;;;;;4976744;28;20493;-83
2023/11/04 10:21:00;;;;;;;1.53;1.00;;;12.20;98.20;;;;;;4957343;28;20941;-83
2023/11/04 10:23:29;;;;;;;1.60;1.10;;;12.10;98.20;;;;;;4978962;28;20517;-81
2023/11/04 10:26:00;;;;;;;1.57;1.10;;;12.10;98.20;;;;;;4957906;28;20914;-82
2023/11/04 10:28:27;;;;;;;1.57;1.10;;;12.10;98.20;;;;;;4975124;28;20941;-84
2023/11/04 10:31:02;;;;;;;1.57;1.10;;;12.10;98.20;;;;;;4952982;28;21072;-81
2023/11/04 10:33:34;;;;;;;1.60;1.03;;;12.10;98.20;;;;;;4979615;28;20477;-81
2023/11/04 10:36:04;;;;;;;1.60;1.10;;;12.10;98.20;;;;;;4958187;28;20462;-82
2023/11/04 10:38:35;;;;;;;1.60;1.10;;;12.10;98.20;;;;;;4975726;28;20486;-80
2023/11/04 10:41:04;;;;;;;1.50;1.00;;;12.10;98.20;;;;;;4974236;23;20496;-79
2023/11/04 10:43:54;;;;;;;1.50;1.10;;;12.10;98.20;;;;;;5001491;28;20473;-81
2023/11/04 10:46:29;;;;;;;1.53;1.00;;;12.00;98.20;;;;;;4987686;23;20480;-76
2023/11/04 10:49:02;;;;;;;1.53;1.00;;;12.00;98.20;;;;;;4951406;23;20575;-76
2023/11/04 10:51:35;;;;;;;1.50;1.10;;;12.00;98.20;;;;;;4914514;29;20503;-76
2023/11/04 10:54:17;;;;;;;1.57;1.10;;;12.00;98.20;;;;;;4926362;29;20555;-77
2023/11/04 10:56:50;;;;;;;1.53;1.00;;;12.00;98.20;;;;;;4921434;29;21021;-77
2023/11/04 10:59:29;;;;;;;1.57;1.07;;;12.00;98.20;;;;;;4926394;29;21026;-78
2023/11/04 11:01:58;;;;;;;1.53;1.00;;;12.00;98.20;;;;;;4924337;28;21048;-78
2023/11/04 11:04:27;;;;;;;1.57;1.00;;;12.00;98.20;;;;;;4931303;28;20470;-76
2023/11/04 11:07:08;;;;;;;;;;;;;;;;;;;;;
2023/11/04 11:09:29;;;;;;;1.57;1.10;;;12.00;98.20;;;;;;5029703;23;21109;-79
2023/11/04 11:12:03;;;;;;;1.53;1.00;;;11.90;98.20;;;;;;4964567;28;20739;-80
2023/11/04 11:14:31;;;;;;;1.57;1.00;;;11.90;98.20;;;;;;4976313;28;20524;-79
2023/11/04 11:17:01;;;;;;;1.60;1.10;;;11.70;98.20;;;;;;4960500;28;20497;-79
2023/11/04 11:19:28;;;;;;;1.60;1.10;;;11.60;98.20;;;;;;4969366;28;20501;-79
2023/11/04 11:21:55;;;;;;;1.50;1.00;;;11.40;98.20;;;;;;4968012;28;20481;-80
2023/11/04 11:24:23;;;;;;;1.60;1.17;;;11.30;98.20;;;;;;4974320;28;20967;-79
2023/11/04 11:26:53;;;;;;;1.53;1.10;;;11.20;98.20;;;;;;4963397;28;21055;-78
2023/11/04 11:29:24;;;;;;;1.53;1.00;;;11.10;98.20;;;;;;4973132;28;20494;-81
2023/11/04 11:32:16;;;;;;;1.53;1.00;;;11.00;98.20;;;;;;4974624;28;21041;-82
2023/11/04 11:34:52;;;;;;;1.50;1.00;;;11.00;98.20;;;;;;4974681;28;20544;-82
2023/11/04 11:40:37;;;;;;;1.57;1.10;;;10.80;98.20;;;;;;5006580;23;20866;-79
2023/11/04 11:43:05;;;;;;;1.60;1.20;;;10.80;98.20;;;;;;5024845;28;21066;-78
2023/11/04 11:45:32;;;;;;;1.57;1.10;;;10.80;98.20;;;;;;5021730;28;20456;-79
2023/11/04 11:48:00;;;;;;;1.50;1.07;;;10.80;98.20;;;;;;5017870;28;20487;-78
2023/11/04 11:50:27;;;;;;;1.60;1.20;;;10.80;98.20;;;;;;5002286;28;20510;-79
2023/11/04 11:52:54;;;;;;;1.60;1.10;;;10.80;98.20;;;;;;5010562;28;20475;-79
2023/11/04 11:55:21;;;;;;;1.57;1.10;;;10.70;98.20;;;;;;5005037;28;20579;-78
2023/11/04 11:57:51;;;;;;;1.50;1.10;;;10.70;98.20;;;;;;4997304;28;20486;-78
2023/11/04 12:23:00;;;;;;;1.50;1.10;;;10.50;98.20;;;;;;5212415;22;20536;-80
2023/11/04 13:41:52;;;;;;;1.60;1.17;;;10.00;98.20;;;;;;5790938;23;20499;-86
2023/11/04 13:44:41;;;;;;;1.60;1.20;;;10.00;98.20;;;;;;4994241;28;20479;-83
2023/11/04 13:47:13;;;;;;;1.60;1.40;;;10.00;98.20;;;;;;4993721;28;21170;-82
2023/11/04 13:49:40;;;;;;;1.53;1.20;;;10.00;98.20;;;;;;4993267;28;20469;-83
2023/11/04 13:52:08;;;;;;;1.60;1.10;;;10.00;98.20;;;;;;4976738;28;20485;-87
2023/11/04 13:54:40;;;;;;;1.60;1.20;;;10.00;98.20;;;;;;4974510;28;20469;-80
2023/11/04 13:57:18;;;;;;;1.53;1.20;;;10.00;98.20;;;;;;4968640;28;20485;-79
2023/11/04 13:59:46;;;;;;;1.60;1.20;;;10.00;98.20;;;;;;4970921;28;20461;-79
2023/11/04 14:02:13;;;;;;;1.60;1.30;;;10.00;98.20;;;;;;4966746;28;20492;-81
2023/11/04 14:04:41;;;;;;;1.60;1.20;;;10.00;98.20;;;;;;4968417;28;20466;-81
2023/11/04 14:07:10;;;;;;;1.60;1.10;;;10.00;98.20;;;;;;4968627;28;20894;-83
2023/11/04 14:09:38;;;;;;;1.60;1.13;;;10.00;98.20;;;;;;4969596;28;20516;-82
2023/11/04 14:12:07;;;;;;;1.53;1.10;;;10.00;98.20;;;;;;4970805;28;20516;-85
2023/11/04 14:15:07;;;;;;;1.60;1.20;;;10.00;98.20;;;;;;4978770;28;20601;-85
2023/11/04 14:17:37;;;;;;;1.53;1.10;;;10.10;98.20;;;;;;4979789;28;20597;-85
2023/11/04 14:20:05;;;;;;;1.60;1.20;;;10.10;98.20;;;;;;4983220;28;20460;-84
2023/11/04 14:22:34;;;;;;;1.57;1.10;;;10.10;98.20;;;;;;4978644;28;20485;-85
2023/11/04 14:25:01;;;;;;;1.60;1.20;;;10.10;98.20;;;;;;4987559;28;20464;-81
2023/11/04 14:27:29;;;;;;;1.50;1.10;;;10.10;98.20;;;;;;4993074;28;21220;-85
2023/11/04 14:29:56;;;;;;;1.60;1.13;;;10.10;98.20;;;;;;4991464;28;20478;-79
2023/11/04 14:32:25;;;;;;;1.60;1.20;;;10.10;98.20;;;;;;4991165;28;20538;-80
2023/11/04 14:34:53;;;;;;;1.60;1.10;;;10.10;98.20;;;;;;4986639;28;20495;-81
2023/11/04 14:37:20;;;;;;;1.57;1.10;;;10.10;98.20;;;;;;4985341;28;20508;-83
2023/11/04 14:39:48;;;;;;;1.60;1.20;;;10.10;98.20;;;;;;4988698;28;20564;-84